Time;durP1;ratioP1;P1;durP2;ratioP2;P2;SDS_P1;SDS_P2;PMS_P1;PMS_P2;Temp;Humidity;BMP_temperature;BMP_pressure;BME280_temperature;BME280_humidity;BME280_pressure;Samples;Min_cycle;Max_cycle;Signal;HPM_P1;HPM_P2
2022/02/12 00:01:07;;;;;;;24.95;22.95;;;;;;;;;;5013645;28;20401;-85
2022/02/12 00:03:35;;;;;;;24.25;22.17;;;;;;;;;;5013589;28;20220;-84
2022/02/12 00:06:02;;;;;;;24.65;22.55;;;;;;;;;;5015503;28;20687;-85
2022/02/12 00:08:29;;;;;;;24.70;22.52;;;;;;;;;;5017121;28;20596;-84
2022/02/12 00:10:57;;;;;;;25.23;23.20;;;;;;;;;;5015657;28;20201;-84
2022/02/12 00:13:26;;;;;;;25.17;22.77;;;;;;;;;;5016000;28;20185;-84
2022/02/12 00:15:53;;;;;;;24.42;22.58;;;;;;;;;;5016560;28;20675;-84
2022/02/12 00:18:21;;;;;;;25.42;23.42;;;;;;;;;;5016792;28;20622;-84
2022/02/12 00:20:48;;;;;;;25.05;23.05;;;;;;;;;;5016811;28;20587;-85
2022/02/12 00:23:16;;;;;;;25.38;23.35;;;;;;;;;;5016160;28;20206;-85
2022/02/12 00:25:44;;;;;;;27.42;25.10;;;;;;;;;;5016718;28;20595;-85
2022/02/12 00:28:11;;;;;;;24.70;22.70;;;;;;;;;;5016629;28;20595;-84
2022/02/12 00:30:40;;;;;;;24.55;22.20;;;;;;;;;;5016870;28;20194;-83
2022/02/12 00:33:08;;;;;;;25.48;22.92;;;;;;;;;;5016271;28;20230;-84
2022/02/12 00:35:36;;;;;;;25.80;23.35;;;;;;;;;;5016604;28;20218;-85
2022/02/12 00:38:03;;;;;;;25.27;23.05;;;;;;;;;;5015980;28;20641;-84
2022/02/12 00:40:30;;;;;;;25.23;22.70;;;;;;;;;;5015246;28;20202;-84
2022/02/12 00:42:58;;;;;;;25.80;23.70;;;;;;;;;;5016346;28;20207;-84
2022/02/12 00:45:25;;;;;;;25.63;23.63;;;;;;;;;;5016215;28;20190;-84
2022/02/12 00:47:54;;;;;;;24.75;23.05;;;;;;;;;;5016340;28;20222;-85
2022/02/12 00:50:21;;;;;;;24.42;22.33;;;;;;;;;;5015902;28;20210;-84
2022/02/12 00:52:49;;;;;;;26.67;24.42;;;;;;;;;;5016161;28;20201;-84
2022/02/12 00:55:16;;;;;;;27.83;25.67;;;;;;;;;;5016460;28;20233;-84
2022/02/12 00:57:43;;;;;;;32.20;24.90;;;;;;;;;;5016188;28;20190;-85
2022/02/12 01:00:11;;;;;;;26.88;24.20;;;;;;;;;;5016058;28;20186;-85
2022/02/12 01:02:38;;;;;;;26.52;24.08;;;;;;;;;;5015959;28;20197;-85
2022/02/12 01:05:08;;;;;;;27.50;24.30;;;;;;;;;;5015767;28;20190;-84
2022/02/12 01:07:35;;;;;;;26.50;24.40;;;;;;;;;;5015799;28;20218;-85
2022/02/12 01:10:02;;;;;;;25.58;23.50;;;;;;;;;;5015942;28;20200;-85
2022/02/12 01:12:30;;;;;;;27.38;24.85;;;;;;;;;;5015537;28;20198;-84
2022/02/12 01:14:57;;;;;;;24.65;22.85;;;;;;;;;;5015909;28;20195;-84
2022/02/12 01:17:26;;;;;;;31.77;24.30;;;;;;;;;;5014763;28;20526;-85
2022/02/12 01:19:53;;;;;;;27.88;23.77;;;;;;;;;;5015813;28;20190;-85
2022/02/12 01:22:24;;;;;;;27.45;24.90;;;;;;;;;;5015202;28;20690;-85
2022/02/12 01:24:51;;;;;;;26.30;24.27;;;;;;;;;;5015261;28;20202;-84
2022/02/12 01:27:19;;;;;;;26.40;24.00;;;;;;;;;;5015566;28;20222;-84
2022/02/12 01:29:47;;;;;;;26.73;24.55;;;;;;;;;;5015167;28;20686;-84
2022/02/12 01:32:14;;;;;;;27.17;25.08;;;;;;;;;;5015357;28;20190;-84
2022/02/12 01:34:42;;;;;;;24.95;22.90;;;;;;;;;;5014955;28;20238;-84
2022/02/12 01:37:10;;;;;;;26.00;23.88;;;;;;;;;;5015044;28;20194;-85
2022/02/12 01:39:39;;;;;;;27.25;24.73;;;;;;;;;;5015150;28;20201;-84
2022/02/12 01:42:06;;;;;;;27.05;24.55;;;;;;;;;;5015190;28;20187;-85
2022/02/12 01:44:35;;;;;;;25.08;22.80;;;;;;;;;;5014108;28;20206;-85
2022/02/12 01:47:02;;;;;;;27.10;24.55;;;;;;;;;;5015169;28;20218;-85
2022/02/12 01:49:30;;;;;;;26.48;24.02;;;;;;;;;;5014994;28;20201;-84
2022/02/12 01:51:58;;;;;;;28.08;25.42;;;;;;;;;;5014761;28;20286;-85
2022/02/12 01:54:26;;;;;;;26.75;24.08;;;;;;;;;;5014797;28;20545;-84
2022/02/12 01:56:55;;;;;;;30.00;24.80;;;;;;;;;;5014722;28;20197;-84
2022/02/12 01:59:24;;;;;;;25.35;23.30;;;;;;;;;;5014697;28;20220;-85
2022/02/12 02:01:51;;;;;;;25.42;23.65;;;;;;;;;;5014619;28;20277;-85
2022/02/12 02:04:19;;;;;;;26.15;23.95;;;;;;;;;;5014848;28;20190;-84
2022/02/12 02:06:47;;;;;;;27.17;24.70;;;;;;;;;;5014702;28;20584;-85
2022/02/12 02:09:15;;;;;;;28.02;25.48;;;;;;;;;;5013614;28;20604;-85
2022/02/12 02:11:42;;;;;;;26.98;24.77;;;;;;;;;;5014393;28;20186;-84
2022/02/12 02:14:11;;;;;;;28.02;25.33;;;;;;;;;;5014537;28;20564;-84
2022/02/12 02:16:40;;;;;;;27.05;25.05;;;;;;;;;;5014579;28;20708;-85
2022/02/12 02:19:07;;;;;;;26.30;24.10;;;;;;;;;;5014721;28;20222;-84
2022/02/12 02:21:36;;;;;;;27.42;24.90;;;;;;;;;;5013128;28;20198;-85
2022/02/12 02:24:05;;;;;;;26.58;24.40;;;;;;;;;;5014758;28;20205;-84
2022/02/12 02:26:33;;;;;;;26.38;24.13;;;;;;;;;;5014529;28;20215;-84
2022/02/12 02:29:01;;;;;;;27.60;25.00;;;;;;;;;;5012708;28;20602;-84
2022/02/12 02:31:28;;;;;;;26.98;24.33;;;;;;;;;;5013973;28;20670;-84
2022/02/12 02:33:56;;;;;;;26.25;24.08;;;;;;;;;;5013989;28;20284;-84
2022/02/12 02:36:23;;;;;;;25.90;23.88;;;;;;;;;;5014001;28;20197;-85
2022/02/12 02:38:50;;;;;;;27.30;24.95;;;;;;;;;;5014207;28;20237;-84
2022/02/12 02:41:19;;;;;;;26.48;24.00;;;;;;;;;;5013870;28;20209;-83
2022/02/12 02:43:47;;;;;;;26.52;24.05;;;;;;;;;;5014168;28;20277;-81
2022/02/12 02:46:14;;;;;;;26.40;24.10;;;;;;;;;;5013817;28;20650;-85
2022/02/12 02:48:41;;;;;;;26.83;24.15;;;;;;;;;;5014168;28;20218;-85
2022/02/12 02:56:40;;;;;;;27.13;24.85;;;;;;;;;;5013796;28;20268;-84
2022/02/12 02:59:08;;;;;;;25.15;23.20;;;;;;;;;;5013924;28;20217;-84
2022/02/12 03:01:35;;;;;;;27.17;24.85;;;;;;;;;;5013639;28;20190;-84
2022/02/12 03:04:03;;;;;;;26.85;24.50;;;;;;;;;;5013991;28;20198;-84
2022/02/12 03:06:31;;;;;;;26.90;24.63;;;;;;;;;;5013689;28;20213;-84
2022/02/12 03:08:59;;;;;;;28.77;25.85;;;;;;;;;;5013634;28;20186;-84
2022/02/12 03:11:26;;;;;;;29.23;26.50;;;;;;;;;;5012673;28;20194;-84
2022/02/12 03:13:56;;;;;;;27.02;24.95;;;;;;;;;;5012400;28;20232;-84
2022/02/12 03:16:23;;;;;;;27.30;24.73;;;;;;;;;;5013518;28;20225;-84
2022/02/12 03:18:51;;;;;;;26.75;24.85;;;;;;;;;;5013902;28;20615;-84
2022/02/12 03:21:19;;;;;;;26.58;24.55;;;;;;;;;;5013505;28;20187;-84
2022/02/12 03:23:46;;;;;;;27.92;25.40;;;;;;;;;;5013564;28;20226;-84
2022/02/12 03:26:14;;;;;;;29.42;26.35;;;;;;;;;;5013391;28;20194;-84
2022/02/12 03:28:41;;;;;;;29.95;26.75;;;;;;;;;;5013357;28;20233;-85
2022/02/12 03:31:11;;;;;;;26.40;24.50;;;;;;;;;;5013536;28;20706;-84
2022/02/12 03:33:38;;;;;;;26.77;24.85;;;;;;;;;;5013435;28;20286;-85
2022/02/12 03:36:06;;;;;;;26.88;24.65;;;;;;;;;;5013307;28;20637;-85
2022/02/12 03:38:35;;;;;;;26.50;24.35;;;;;;;;;;5012266;28;20201;-84
2022/02/12 03:41:04;;;;;;;26.63;24.55;;;;;;;;;;5015589;28;20206;-84
2022/02/12 03:43:32;;;;;;;27.63;25.17;;;;;;;;;;5017196;28;20636;-84
2022/02/12 03:46:00;;;;;;;26.55;24.00;;;;;;;;;;5017437;28;20200;-85
2022/02/12 03:48:29;;;;;;;26.38;24.27;;;;;;;;;;5016938;28;20217;-83
2022/02/12 03:50:57;;;;;;;26.33;24.02;;;;;;;;;;5017165;28;20242;-85
2022/02/12 03:53:25;;;;;;;26.13;23.83;;;;;;;;;;5016878;28;20186;-84
2022/02/12 03:55:52;;;;;;;28.17;25.60;;;;;;;;;;5017266;28;20594;-85
2022/02/12 03:58:20;;;;;;;27.48;24.63;;;;;;;;;;5017296;28;20205;-85
2022/02/12 04:00:48;;;;;;;27.10;24.70;;;;;;;;;;5017248;28;20191;-84
2022/02/12 04:03:15;;;;;;;32.92;25.88;;;;;;;;;;5016856;28;20201;-85
2022/02/12 04:05:45;;;;;;;27.83;25.35;;;;;;;;;;5017097;28;20194;-85
2022/02/12 04:08:17;;;;;;;27.13;24.48;;;;;;;;;;5015712;28;20252;-85
2022/02/12 04:10:45;;;;;;;26.48;24.42;;;;;;;;;;5017063;28;20199;-85
2022/02/12 04:13:12;;;;;;;26.85;24.73;;;;;;;;;;5016598;28;20191;-85
2022/02/12 04:15:39;;;;;;;27.52;24.95;;;;;;;;;;5016672;28;20236;-84
2022/02/12 04:18:10;;;;;;;26.02;23.73;;;;;;;;;;5016773;28;20268;-84
2022/02/12 04:20:37;;;;;;;29.48;24.70;;;;;;;;;;5017070;28;20240;-85
2022/02/12 04:23:06;;;;;;;25.60;23.80;;;;;;;;;;5016921;28;20194;-85
2022/02/12 04:25:33;;;;;;;28.88;26.35;;;;;;;;;;5016544;28;20202;-84
2022/02/12 04:28:04;;;;;;;27.48;25.15;;;;;;;;;;5015569;28;20241;-85
2022/02/12 04:30:31;;;;;;;26.23;24.23;;;;;;;;;;5016635;28;20198;-85
2022/02/12 04:33:00;;;;;;;26.02;24.02;;;;;;;;;;5016293;28;20238;-85
2022/02/12 04:35:27;;;;;;;27.25;24.70;;;;;;;;;;5016405;28;20191;-84
2022/02/12 04:37:54;;;;;;;26.17;24.15;;;;;;;;;;5016662;28;20190;-84
2022/02/12 04:40:23;;;;;;;26.17;24.10;;;;;;;;;;5016446;28;20198;-84
2022/02/12 04:42:51;;;;;;;25.50;23.58;;;;;;;;;;5016567;28;20560;-85
2022/02/12 04:45:18;;;;;;;27.23;25.13;;;;;;;;;;5016494;28;20210;-85
2022/02/12 04:47:45;;;;;;;26.85;24.63;;;;;;;;;;5016101;28;20226;-85
2022/02/12 04:50:13;;;;;;;26.13;23.98;;;;;;;;;;5015950;28;20226;-85
2022/02/12 04:52:40;;;;;;;26.00;24.00;;;;;;;;;;5016161;28;20569;-84
2022/02/12 04:55:09;;;;;;;26.08;23.63;;;;;;;;;;5016293;28;20197;-84
2022/02/12 04:57:37;;;;;;;25.15;23.20;;;;;;;;;;5016244;28;20197;-85
2022/02/12 05:00:05;;;;;;;25.55;23.45;;;;;;;;;;5016259;28;20194;-85
2022/02/12 05:02:33;;;;;;;25.25;23.38;;;;;;;;;;5016035;28;20201;-85
2022/02/12 05:05:00;;;;;;;25.58;23.77;;;;;;;;;;5016117;28;20710;-85
2022/02/12 05:07:27;;;;;;;25.67;23.58;;;;;;;;;;5015956;28;20213;-84
2022/02/12 05:09:55;;;;;;;25.77;23.40;;;;;;;;;;5015770;28;20194;-85
2022/02/12 05:12:22;;;;;;;24.60;22.65;;;;;;;;;;5015670;28;20187;-85
2022/02/12 05:14:51;;;;;;;25.98;23.80;;;;;;;;;;5014934;28;20190;-85
2022/02/12 05:17:18;;;;;;;26.85;24.55;;;;;;;;;;5015458;28;20226;-84
2022/02/12 05:19:46;;;;;;;26.73;23.77;;;;;;;;;;5014749;28;20253;-85
2022/02/12 05:22:13;;;;;;;25.10;23.00;;;;;;;;;;5015653;28;20191;-85
2022/02/12 05:24:42;;;;;;;25.70;23.63;;;;;;;;;;5015802;28;20206;-84
2022/02/12 05:27:10;;;;;;;26.35;24.30;;;;;;;;;;5015567;28;20197;-85
2022/02/12 05:29:38;;;;;;;25.50;23.50;;;;;;;;;;5015495;28;20196;-84
2022/02/12 05:32:07;;;;;;;24.45;22.52;;;;;;;;;;5015485;28;20201;-85
2022/02/12 05:34:34;;;;;;;25.98;23.77;;;;;;;;;;5013970;28;20230;-85
2022/02/12 05:37:02;;;;;;;26.77;24.77;;;;;;;;;;5015348;28;20640;-85
2022/02/12 05:39:29;;;;;;;26.10;24.30;;;;;;;;;;5015620;28;20647;-85
2022/02/12 05:41:57;;;;;;;24.95;23.05;;;;;;;;;;5015400;28;20194;-85
2022/02/12 05:44:24;;;;;;;24.45;22.45;;;;;;;;;;5015087;28;20714;-84
2022/02/12 05:46:51;;;;;;;25.60;23.58;;;;;;;;;;5015233;28;20197;-85
2022/02/12 05:49:20;;;;;;;25.73;23.35;;;;;;;;;;5014585;28;20643;-84
2022/02/12 05:51:48;;;;;;;24.02;22.17;;;;;;;;;;5015185;28;20217;-85
2022/02/12 05:54:15;;;;;;;25.85;23.70;;;;;;;;;;5013940;28;20194;-85
2022/02/12 05:56:42;;;;;;;24.73;22.55;;;;;;;;;;5014019;28;20206;-84
2022/02/12 05:59:12;;;;;;;25.52;23.58;;;;;;;;;;5014979;28;20190;-85
2022/02/12 06:01:39;;;;;;;24.10;22.20;;;;;;;;;;5014589;28;20285;-84
2022/02/12 06:04:07;;;;;;;26.63;24.15;;;;;;;;;;5014449;28;20367;-83
2022/02/12 06:06:36;;;;;;;28.90;26.40;;;;;;;;;;5014549;28;20589;-85
2022/02/12 06:09:03;;;;;;;30.05;27.75;;;;;;;;;;5014823;28;20714;-84
2022/02/12 06:11:32;;;;;;;30.23;28.10;;;;;;;;;;5014486;28;20194;-85
2022/02/12 06:13:59;;;;;;;33.55;31.05;;;;;;;;;;5014827;28;20190;-84
2022/02/12 06:16:26;;;;;;;29.10;27.00;;;;;;;;;;5014523;28;20198;-85
2022/02/12 06:18:54;;;;;;;28.27;26.08;;;;;;;;;;5014599;28;20243;-84
2022/02/12 06:21:21;;;;;;;27.25;25.02;;;;;;;;;;5014587;28;20212;-84
2022/02/12 06:23:50;;;;;;;27.67;25.27;;;;;;;;;;5014210;28;20198;-84
2022/02/12 06:26:18;;;;;;;28.20;25.67;;;;;;;;;;5012819;28;20656;-84
2022/02/12 06:28:45;;;;;;;24.77;22.88;;;;;;;;;;5014285;28;20749;-84
2022/02/12 06:31:12;;;;;;;25.10;23.00;;;;;;;;;;5014173;28;20213;-84
2022/02/12 06:33:39;;;;;;;25.20;22.90;;;;;;;;;;5013729;28;20233;-83
2022/02/12 06:36:07;;;;;;;25.85;23.95;;;;;;;;;;5014429;28;20214;-84
2022/02/12 06:38:34;;;;;;;24.48;22.60;;;;;;;;;;5014077;28;20194;-84
2022/02/12 06:41:03;;;;;;;27.05;24.40;;;;;;;;;;5013582;28;20194;-84
2022/02/12 06:43:31;;;;;;;24.88;23.13;;;;;;;;;;5014278;28;20533;-87
2022/02/12 06:45:58;;;;;;;24.85;22.95;;;;;;;;;;5014756;28;20226;-86
2022/02/12 06:48:25;;;;;;;24.85;22.83;;;;;;;;;;5014485;28;20214;-87
2022/02/12 06:50:55;;;;;;;25.55;23.60;;;;;;;;;;5014343;28;20631;-95
2022/02/12 06:53:23;;;;;;;25.77;23.88;;;;;;;;;;5014792;28;20200;-94
2022/02/12 06:55:51;;;;;;;24.80;22.67;;;;;;;;;;5014983;28;20187;-95
2022/02/12 06:58:20;;;;;;;24.88;22.98;;;;;;;;;;5014625;28;20198;-94
2022/02/12 07:00:47;;;;;;;24.13;22.23;;;;;;;;;;5013263;28;20259;-93
2022/02/12 07:03:14;;;;;;;23.45;21.85;;;;;;;;;;5015757;28;20206;-94
2022/02/12 07:05:42;;;;;;;23.80;22.10;;;;;;;;;;5017508;28;20190;-95
2022/02/12 07:08:09;;;;;;;23.73;21.63;;;;;;;;;;5014873;28;20229;-94
2022/02/12 07:10:36;;;;;;;23.70;22.00;;;;;;;;;;5014813;28;20193;-94
2022/02/12 07:13:04;;;;;;;24.65;22.52;;;;;;;;;;5015217;28;20194;-95
2022/02/12 07:15:33;;;;;;;24.70;22.70;;;;;;;;;;5016419;28;20194;-93
2022/02/12 07:18:00;;;;;;;24.92;23.27;;;;;;;;;;5018429;28;20276;-91
2022/02/12 07:20:27;;;;;;;25.13;23.02;;;;;;;;;;5018379;28;20545;-91
2022/02/12 07:22:55;;;;;;;25.52;23.25;;;;;;;;;;5018681;28;20241;-92
2022/02/12 07:25:22;;;;;;;24.77;22.70;;;;;;;;;;5019158;28;20587;-94
2022/02/12 07:27:49;;;;;;;26.90;24.52;;;;;;;;;;5018254;28;20197;-94
2022/02/12 07:30:17;;;;;;;26.48;24.17;;;;;;;;;;5018288;28;20190;-91
2022/02/12 07:32:46;;;;;;;25.30;23.30;;;;;;;;;;5017908;28;20238;-87
2022/02/12 07:35:14;;;;;;;24.35;22.55;;;;;;;;;;5017642;28;20245;-96
2022/02/12 07:37:42;;;;;;;25.65;23.45;;;;;;;;;;5020216;28;20221;-93
2022/02/12 07:40:10;;;;;;;24.48;22.65;;;;;;;;;;5018334;28;20206;-86
2022/02/12 07:42:38;;;;;;;25.40;23.35;;;;;;;;;;5017534;28;20197;-86
2022/02/12 07:45:06;;;;;;;25.48;23.33;;;;;;;;;;5017596;28;20190;-88
2022/02/12 07:47:33;;;;;;;26.05;23.92;;;;;;;;;;5017742;28;20194;-88
2022/02/12 07:50:03;;;;;;;24.00;21.88;;;;;;;;;;5016354;28;20222;-88
2022/02/12 07:52:30;;;;;;;29.17;26.52;;;;;;;;;;5017302;28;20208;-90
2022/02/12 07:54:58;;;;;;;25.17;23.27;;;;;;;;;;5017702;28;20194;-93
2022/02/12 07:57:25;;;;;;;25.10;22.90;;;;;;;;;;5016274;28;20202;-93
2022/02/12 07:59:53;;;;;;;25.00;22.85;;;;;;;;;;5017792;28;20194;-91
2022/02/12 08:02:20;;;;;;;24.13;22.45;;;;;;;;;;5017366;28;20222;-91
2022/02/12 08:04:48;;;;;;;24.58;22.60;;;;;;;;;;5017699;28;20589;-87
2022/02/12 08:07:29;;;;;;;25.30;23.30;;;;;;;;;;5017097;28;20244;-87
2022/02/12 08:09:56;;;;;;;23.65;22.15;;;;;;;;;;5017002;28;20273;-85
2022/02/12 08:12:24;;;;;;;23.90;22.10;;;;;;;;;;5016791;28;20648;-86
2022/02/12 08:14:52;;;;;;;24.45;22.15;;;;;;;;;;5016950;28;20647;-88
2022/02/12 08:17:21;;;;;;;24.08;22.38;;;;;;;;;;5016962;28;20229;-84
2022/02/12 08:19:49;;;;;;;24.15;21.85;;;;;;;;;;5016391;28;20525;-87
2022/02/12 08:22:19;;;;;;;25.52;23.10;;;;;;;;;;5019342;28;20202;-91
2022/02/12 08:24:47;;;;;;;23.67;21.67;;;;;;;;;;5016908;28;20213;-93
2022/02/12 08:27:14;;;;;;;23.38;21.85;;;;;;;;;;5019688;28;20198;-96
2022/02/12 08:29:43;;;;;;;24.85;22.45;;;;;;;;;;5028085;28;20240;-91
2022/02/12 08:32:10;;;;;;;23.52;21.73;;;;;;;;;;5018201;28;20530;-94
2022/02/12 08:34:40;;;;;;;24.38;22.05;;;;;;;;;;5016820;28;20691;-85
2022/02/12 08:37:08;;;;;;;23.02;21.15;;;;;;;;;;5016152;28;20668;-86
2022/02/12 08:39:37;;;;;;;22.70;21.15;;;;;;;;;;5018432;28;20190;-87
2022/02/12 08:42:04;;;;;;;24.08;22.38;;;;;;;;;;5017472;28;20197;-95
2022/02/12 08:44:32;;;;;;;23.80;21.95;;;;;;;;;;5017647;28;20193;-96
2022/02/12 08:46:59;;;;;;;26.63;24.75;;;;;;;;;;5015777;28;20191;-87
2022/02/12 08:49:27;;;;;;;24.25;21.83;;;;;;;;;;5016691;28;20226;-86
2022/02/12 08:51:54;;;;;;;22.92;21.42;;;;;;;;;;5016726;28;20200;-87
2022/02/12 08:54:21;;;;;;;23.10;21.40;;;;;;;;;;5016650;28;20554;-83
2022/02/12 08:56:50;;;;;;;23.92;21.92;;;;;;;;;;5016159;28;20190;-88
2022/02/12 08:59:17;;;;;;;21.58;19.67;;;;;;;;;;5015669;28;20197;-78
2022/02/12 09:01:45;;;;;;;23.60;21.67;;;;;;;;;;5015956;28;20190;-84
2022/02/12 09:04:13;;;;;;;22.20;20.65;;;;;;;;;;5015737;28;20253;-84
2022/02/12 09:06:40;;;;;;;22.92;21.25;;;;;;;;;;5015933;28;20191;-85
2022/02/12 09:09:09;;;;;;;24.85;22.10;;;;;;;;;;5016131;28;20213;-85
2022/02/12 09:11:38;;;;;;;23.05;21.40;;;;;;;;;;5015946;28;20292;-85
2022/02/12 09:14:07;;;;;;;23.00;21.35;;;;;;;;;;5015831;28;20190;-84
2022/02/12 09:16:34;;;;;;;24.05;21.60;;;;;;;;;;5015619;28;20191;-84
2022/02/12 09:19:02;;;;;;;25.50;23.40;;;;;;;;;;5014321;28;20719;-85
2022/02/12 09:21:29;;;;;;;22.60;20.77;;;;;;;;;;5015412;28;20263;-83
2022/02/12 09:23:57;;;;;;;23.48;21.65;;;;;;;;;;5015946;28;20190;-84
2022/02/12 09:26:29;;;;;;;23.08;20.77;;;;;;;;;;5015253;28;20221;-85
2022/02/12 09:28:57;;;;;;;23.08;21.48;;;;;;;;;;5015305;28;20617;-86
2022/02/12 09:31:26;;;;;;;23.05;21.02;;;;;;;;;;5015467;28;20206;-86
2022/02/12 09:33:53;;;;;;;22.27;20.65;;;;;;;;;;5013928;28;20234;-87
2022/02/12 09:36:21;;;;;;;23.98;20.95;;;;;;;;;;5015315;28;20198;-86
2022/02/12 09:38:48;;;;;;;22.65;20.98;;;;;;;;;;5014859;28;20202;-78
2022/02/12 09:41:20;;;;;;;22.73;20.85;;;;;;;;;;5013957;28;20202;-91
2022/02/12 09:43:49;;;;;;;22.58;20.40;;;;;;;;;;5015654;28;20194;-89
2022/02/12 09:46:38;;;;;;;22.88;20.77;;;;;;;;;;5016692;28;20277;-85
2022/02/12 09:49:08;;;;;;;23.38;21.40;;;;;;;;;;5013313;28;20599;-90
2022/02/12 09:51:37;;;;;;;24.38;21.83;;;;;;;;;;5013030;28;20934;-83
2022/02/12 09:54:04;;;;;;;22.30;20.92;;;;;;;;;;5014817;28;20238;-84
2022/02/12 09:56:31;;;;;;;22.98;21.40;;;;;;;;;;5015283;28;20195;-85
2022/02/12 09:58:59;;;;;;;23.42;21.50;;;;;;;;;;5015263;28;20195;-86
2022/02/12 10:01:26;;;;;;;23.65;22.02;;;;;;;;;;5015230;28;20260;-82
2022/02/12 10:03:54;;;;;;;25.23;23.00;;;;;;;;;;5014864;28;20226;-87
2022/02/12 10:06:38;;;;;;;22.13;20.40;;;;;;;;;;5015439;28;20194;-87
2022/02/12 10:09:06;;;;;;;24.90;22.65;;;;;;;;;;5015078;28;20313;-92
2022/02/12 10:11:40;;;;;;;22.40;21.00;;;;;;;;;;5015202;28;20555;-89
2022/02/12 10:14:11;;;;;;;22.88;21.23;;;;;;;;;;5015015;28;20185;-90
2022/02/12 10:16:52;;;;;;;24.73;22.70;;;;;;;;;;5015251;28;20627;-88
2022/02/12 10:19:20;;;;;;;23.50;21.50;;;;;;;;;;5014922;28;20292;-86
2022/02/12 10:22:05;;;;;;;24.98;23.25;;;;;;;;;;5015013;28;20194;-84
2022/02/12 10:24:54;;;;;;;23.30;21.38;;;;;;;;;;5014845;28;20190;-87
2022/02/12 10:27:22;;;;;;;23.92;21.95;;;;;;;;;;5014216;28;20210;-83
2022/02/12 10:29:52;;;;;;;23.05;21.33;;;;;;;;;;5014774;28;20218;-87
2022/02/12 10:32:20;;;;;;;21.70;20.25;;;;;;;;;;5014881;28;20264;-87
2022/02/12 10:34:49;;;;;;;24.20;21.95;;;;;;;;;;5014339;28;20679;-87
2022/02/12 10:37:16;;;;;;;23.88;21.60;;;;;;;;;;5014891;28;20202;-87
2022/02/12 10:39:51;;;;;;;23.40;21.70;;;;;;;;;;5014431;28;20201;-87
2022/02/12 10:42:19;;;;;;;22.48;20.80;;;;;;;;;;5014819;28;20194;-87
2022/02/12 10:44:47;;;;;;;23.52;21.45;;;;;;;;;;5014847;28;20194;-87
2022/02/12 10:47:15;;;;;;;24.05;22.27;;;;;;;;;;5014574;28;20273;-87
2022/02/12 10:49:43;;;;;;;22.45;20.75;;;;;;;;;;5014477;28;20223;-87
2022/02/12 10:52:10;;;;;;;23.02;21.27;;;;;;;;;;5014334;28;20190;-87
2022/02/12 10:54:41;;;;;;;22.50;20.63;;;;;;;;;;5014327;28;20197;-87
2022/02/12 10:57:08;;;;;;;22.40;20.92;;;;;;;;;;5013593;28;20186;-87
2022/02/12 10:59:42;;;;;;;24.45;22.52;;;;;;;;;;5014403;28;20221;-87
2022/02/12 11:02:10;;;;;;;25.95;23.63;;;;;;;;;;5014514;28;20195;-87
2022/02/12 11:04:40;;;;;;;25.05;22.65;;;;;;;;;;5014169;28;20221;-85
2022/02/12 11:07:08;;;;;;;24.83;22.55;;;;;;;;;;5014277;28;20194;-85
2022/02/12 11:09:35;;;;;;;22.67;20.92;;;;;;;;;;5012973;28;20635;-87
2022/02/12 11:12:06;;;;;;;22.42;20.85;;;;;;;;;;5014193;28;20190;-86
2022/02/12 11:14:35;;;;;;;24.40;22.00;;;;;;;;;;5014501;28;20197;-87
2022/02/12 11:17:05;;;;;;;23.25;21.42;;;;;;;;;;5014293;28;20575;-87
2022/02/12 11:19:33;;;;;;;24.08;21.88;;;;;;;;;;5014659;28;20210;-87
2022/02/12 11:22:02;;;;;;;23.83;21.73;;;;;;;;;;5012866;28;20202;-87
2022/02/12 11:24:36;;;;;;;24.85;22.60;;;;;;;;;;5013956;28;20229;-87
2022/02/12 11:27:16;;;;;;;23.83;21.67;;;;;;;;;;5014236;28;20595;-88
2022/02/12 11:29:44;;;;;;;24.50;22.65;;;;;;;;;;5014463;28;20214;-87
2022/02/12 11:32:15;;;;;;;23.25;21.77;;;;;;;;;;5013972;28;20243;-87
2022/02/12 11:34:46;;;;;;;25.20;23.23;;;;;;;;;;5013639;28;20316;-87
2022/02/12 11:37:13;;;;;;;23.42;21.45;;;;;;;;;;5013928;28;20197;-90
2022/02/12 11:39:41;;;;;;;22.90;21.05;;;;;;;;;;5013758;28;20194;-87
2022/02/12 11:42:13;;;;;;;23.20;21.70;;;;;;;;;;5013766;28;20548;-86
2022/02/12 11:44:42;;;;;;;22.02;20.63;;;;;;;;;;5013928;28;20197;-87
2022/02/12 11:47:10;;;;;;;24.95;22.73;;;;;;;;;;5013792;28;20202;-85
2022/02/12 11:49:39;;;;;;;24.08;22.40;;;;;;;;;;5013880;28;20230;-87
2022/02/12 11:52:08;;;;;;;24.48;22.85;;;;;;;;;;5014134;28;20194;-85
2022/02/12 11:54:49;;;;;;;26.92;24.13;;;;;;;;;;5014132;28;20204;-87
2022/02/12 11:57:17;;;;;;;21.25;20.05;;;;;;;;;;5013984;28;20278;-87
2022/02/12 11:59:45;;;;;;;24.75;22.70;;;;;;;;;;5013964;28;20221;-94
2022/02/12 12:02:27;;;;;;;24.13;22.35;;;;;;;;;;5016727;28;20224;-87
2022/02/12 12:05:09;;;;;;;22.70;21.40;;;;;;;;;;5017078;28;20216;-87
2022/02/12 12:07:58;;;;;;;25.02;22.98;;;;;;;;;;5017062;28;20660;-87
2022/02/12 12:10:26;;;;;;;24.83;23.17;;;;;;;;;;5017063;28;20236;-87
2022/02/12 12:12:53;;;;;;;25.00;23.08;;;;;;;;;;5017066;28;20194;-87
2022/02/12 12:15:24;;;;;;;24.92;22.98;;;;;;;;;;5016787;28;20190;-87
2022/02/12 12:18:00;;;;;;;24.08;22.17;;;;;;;;;;5017263;28;20226;-87
2022/02/12 12:20:35;;;;;;;23.38;21.77;;;;;;;;;;5016944;28;20209;-87
2022/02/12 12:23:04;;;;;;;24.65;22.15;;;;;;;;;;5017083;28;20194;-87
2022/02/12 12:25:48;;;;;;;23.55;22.15;;;;;;;;;;5016946;28;20197;-87
2022/02/12 12:28:24;;;;;;;24.10;22.40;;;;;;;;;;5017024;28;20201;-89
2022/02/12 12:30:51;;;;;;;25.08;23.08;;;;;;;;;;5017126;28;20576;-86
2022/02/12 12:33:18;;;;;;;25.40;23.38;;;;;;;;;;5015897;28;20288;-96
2022/02/12 12:35:51;;;;;;;24.90;23.00;;;;;;;;;;5015545;28;20190;-86
2022/02/12 12:38:20;;;;;;;24.20;22.30;;;;;;;;;;5017005;28;20604;-85
2022/02/12 12:40:48;;;;;;;23.23;21.80;;;;;;;;;;5016825;28;20206;-86
2022/02/12 12:43:17;;;;;;;25.42;23.02;;;;;;;;;;5016506;28;20525;-86
2022/02/12 12:45:45;;;;;;;24.67;22.63;;;;;;;;;;5016527;28;20198;-87
2022/02/12 12:48:13;;;;;;;24.13;22.02;;;;;;;;;;5016348;28;20655;-87
2022/02/12 12:50:42;;;;;;;26.30;23.55;;;;;;;;;;5016581;28;20284;-87
2022/02/12 12:53:10;;;;;;;25.15;23.27;;;;;;;;;;5016704;28;20569;-86
2022/02/12 12:55:39;;;;;;;24.58;22.20;;;;;;;;;;5016512;28;20198;-87
2022/02/12 12:58:13;;;;;;;24.38;22.48;;;;;;;;;;5016769;28;20194;-86
2022/02/12 13:00:40;;;;;;;24.00;22.15;;;;;;;;;;5015972;28;20190;-86
2022/02/12 13:03:08;;;;;;;24.77;23.08;;;;;;;;;;5016062;28;20245;-85
2022/02/12 13:05:35;;;;;;;25.50;23.55;;;;;;;;;;5015955;28;20235;-85
2022/02/12 13:08:04;;;;;;;24.45;22.65;;;;;;;;;;5015757;28;20190;-85
2022/02/12 13:10:33;;;;;;;23.73;21.77;;;;;;;;;;5015880;28;20225;-85
2022/02/12 13:13:13;;;;;;;25.65;23.52;;;;;;;;;;5014320;28;20190;-84
2022/02/12 13:15:43;;;;;;;24.98;22.92;;;;;;;;;;5015059;28;20193;-85
2022/02/12 13:18:10;;;;;;;24.95;22.88;;;;;;;;;;5015899;28;20218;-85
2022/02/12 13:20:37;;;;;;;24.42;22.70;;;;;;;;;;5015723;28;20201;-85
2022/02/12 13:23:06;;;;;;;24.85;22.98;;;;;;;;;;5015749;28;20198;-85
2022/02/12 13:25:38;;;;;;;24.90;22.88;;;;;;;;;;5015619;28;20237;-84
2022/02/12 13:28:06;;;;;;;24.50;22.80;;;;;;;;;;5015541;28;20209;-85
2022/02/12 13:30:35;;;;;;;25.65;23.88;;;;;;;;;;5015296;28;20280;-85
2022/02/12 13:33:11;;;;;;;25.45;23.60;;;;;;;;;;5015432;28;20644;-85
2022/02/12 13:35:39;;;;;;;25.23;23.02;;;;;;;;;;5015211;28;20644;-85
2022/02/12 13:38:06;;;;;;;25.35;23.20;;;;;;;;;;5015514;28;20252;-84
2022/02/12 13:40:36;;;;;;;23.52;21.92;;;;;;;;;;5014924;28;20641;-85
2022/02/12 13:43:05;;;;;;;24.20;22.23;;;;;;;;;;5014758;28;20201;-84
2022/02/12 13:45:34;;;;;;;24.38;22.48;;;;;;;;;;5015198;28;20244;-85
2022/02/12 13:48:04;;;;;;;25.75;23.70;;;;;;;;;;5015280;28;20194;-85
2022/02/12 13:50:33;;;;;;;24.30;22.50;;;;;;;;;;5013631;28;20234;-87
2022/02/12 13:53:01;;;;;;;23.35;21.75;;;;;;;;;;5014686;28;20197;-84
2022/02/12 13:55:30;;;;;;;23.33;21.73;;;;;;;;;;5014383;28;20206;-84
2022/02/12 13:57:57;;;;;;;24.95;23.10;;;;;;;;;;5014624;28;20194;-83
2022/02/12 14:00:25;;;;;;;28.15;25.83;;;;;;;;;;5014335;28;20205;-83
2022/02/12 14:02:54;;;;;;;25.85;23.70;;;;;;;;;;5014680;28;20198;-83
2022/02/12 14:05:25;;;;;;;25.58;23.75;;;;;;;;;;5014498;28;20191;-84
2022/02/12 14:07:56;;;;;;;25.50;23.70;;;;;;;;;;5013174;28;20293;-84
2022/02/12 14:10:26;;;;;;;22.65;21.27;;;;;;;;;;5014075;28;20272;-84
2022/02/12 14:12:53;;;;;;;25.88;24.02;;;;;;;;;;5014278;28;20186;-84
2022/02/12 14:15:21;;;;;;;25.70;23.48;;;;;;;;;;5014602;28;20556;-84
2022/02/12 14:17:49;;;;;;;25.83;24.23;;;;;;;;;;5014084;28;20218;-84
2022/02/12 14:20:16;;;;;;;25.27;23.55;;;;;;;;;;5014397;28;20197;-84
2022/02/12 14:22:45;;;;;;;24.88;23.23;;;;;;;;;;5014090;28;20190;-84
2022/02/12 14:25:13;;;;;;;25.98;23.50;;;;;;;;;;5013516;28;20186;-84
2022/02/12 14:27:40;;;;;;;28.67;26.17;;;;;;;;;;5013137;28;20194;-84
2022/02/12 14:30:09;;;;;;;24.58;22.92;;;;;;;;;;5014164;28;20197;-84